sensor_id;sensor_type;location;lat;lon;timestamp;P1;durP1;ratioP1;P2;durP2;ratioP2
9836;SDS011;4957;51.412;6.724;2023-04-03T00:00:56;9.43;;;6.17;;
9836;SDS011;4957;51.412;6.724;2023-04-03T00:03:22;10.50;;;6.33;;
9836;SDS011;4957;51.412;6.724;2023-04-03T00:05:48;24.73;;;12.37;;
9836;SDS011;4957;51.412;6.724;2023-04-03T00:08:14;19.33;;;10.20;;
9836;SDS011;4957;51.412;6.724;2023-04-03T00:10:40;10.70;;;6.83;;
9836;SDS011;4957;51.412;6.724;2023-04-03T00:13:06;11.73;;;6.83;;
9836;SDS011;4957;51.412;6.724;2023-04-03T00:15:33;10.90;;;6.00;;
9836;SDS011;4957;51.412;6.724;2023-04-03T00:17:59;8.93;;;5.63;;
9836;SDS011;4957;51.412;6.724;2023-04-03T00:20:25;11.40;;;6.43;;
9836;SDS011;4957;51.412;6.724;2023-04-03T00:22:52;11.33;;;5.90;;
9836;SDS011;4957;51.412;6.724;2023-04-03T00:25:18;9.87;;;5.70;;
9836;SDS011;4957;51.412;6.724;2023-04-03T00:27:44;7.53;;;5.73;;
9836;SDS011;4957;51.412;6.724;2023-04-03T00:30:11;9.83;;;5.57;;
9836;SDS011;4957;51.412;6.724;2023-04-03T00:32:40;11.30;;;5.83;;
9836;SDS011;4957;51.412;6.724;2023-04-03T00:35:06;8.60;;;5.50;;
9836;SDS011;4957;51.412;6.724;2023-04-03T00:37:32;9.20;;;5.67;;
9836;SDS011;4957;51.412;6.724;2023-04-03T00:39:58;8.00;;;5.33;;
9836;SDS011;4957;51.412;6.724;2023-04-03T00:42:24;10.10;;;5.70;;
9836;SDS011;4957;51.412;6.724;2023-04-03T00:47:21;9.47;;;5.47;;
9836;SDS011;4957;51.412;6.724;2023-04-03T00:49:48;10.27;;;5.30;;
9836;SDS011;4957;51.412;6.724;2023-04-03T00:52:16;7.07;;;5.33;;
9836;SDS011;4957;51.412;6.724;2023-04-03T00:54:44;8.80;;;5.17;;
9836;SDS011;4957;51.412;6.724;2023-04-03T00:57:12;8.50;;;5.00;;
9836;SDS011;4957;51.412;6.724;2023-04-03T00:59:40;7.10;;;5.13;;
9836;SDS011;4957;51.412;6.724;2023-04-03T01:02:09;7.90;;;5.17;;
9836;SDS011;4957;51.412;6.724;2023-04-03T01:04:39;8.00;;;5.17;;
9836;SDS011;4957;51.412;6.724;2023-04-03T01:07:08;10.27;;;5.90;;
9836;SDS011;4957;51.412;6.724;2023-04-03T01:09:40;8.87;;;5.57;;
9836;SDS011;4957;51.412;6.724;2023-04-03T01:12:17;13.97;;;5.87;;
9836;SDS011;4957;51.412;6.724;2023-04-03T01:14:45;10.30;;;5.40;;
9836;SDS011;4957;51.412;6.724;2023-04-03T01:25:56;9.77;;;6.10;;
9836;SDS011;4957;51.412;6.724;2023-04-03T01:28:24;9.20;;;6.00;;
9836;SDS011;4957;51.412;6.724;2023-04-03T01:33:56;13.30;;;6.43;;
9836;SDS011;4957;51.412;6.724;2023-04-03T01:36:23;8.90;;;5.83;;
9836;SDS011;4957;51.412;6.724;2023-04-03T01:38:51;14.40;;;6.50;;
9836;SDS011;4957;51.412;6.724;2023-04-03T01:41:18;12.40;;;6.63;;
9836;SDS011;4957;51.412;6.724;2023-04-03T01:43:46;9.77;;;6.53;;
9836;SDS011;4957;51.412;6.724;2023-04-03T01:46:12;16.57;;;7.47;;
9836;SDS011;4957;51.412;6.724;2023-04-03T01:48:38;11.43;;;6.80;;
9836;SDS011;4957;51.412;6.724;2023-04-03T01:51:04;11.83;;;6.83;;
9836;SDS011;4957;51.412;6.724;2023-04-03T01:53:30;11.60;;;6.13;;
9836;SDS011;4957;51.412;6.724;2023-04-03T01:55:56;9.93;;;6.10;;
9836;SDS011;4957;51.412;6.724;2023-04-03T01:58:21;12.33;;;7.00;;
9836;SDS011;4957;51.412;6.724;2023-04-03T02:00:47;10.13;;;6.83;;
9836;SDS011;4957;51.412;6.724;2023-04-03T02:03:13;9.50;;;6.60;;
9836;SDS011;4957;51.412;6.724;2023-04-03T02:05:39;11.47;;;6.60;;
9836;SDS011;4957;51.412;6.724;2023-04-03T02:08:05;17.77;;;6.03;;
9836;SDS011;4957;51.412;6.724;2023-04-03T02:10:31;8.87;;;5.23;;
9836;SDS011;4957;51.412;6.724;2023-04-03T02:12:57;7.47;;;5.30;;
9836;SDS011;4957;51.412;6.724;2023-04-03T02:15:23;10.77;;;5.37;;
9836;SDS011;4957;51.412;6.724;2023-04-03T02:17:49;10.20;;;5.73;;
9836;SDS011;4957;51.412;6.724;2023-04-03T02:20:15;11.83;;;5.53;;
9836;SDS011;4957;51.412;6.724;2023-04-03T02:22:41;10.03;;;5.43;;
9836;SDS011;4957;51.412;6.724;2023-04-03T02:25:07;7.77;;;5.77;;
9836;SDS011;4957;51.412;6.724;2023-04-03T02:27:33;8.23;;;4.50;;
9836;SDS011;4957;51.412;6.724;2023-04-03T02:29:58;11.37;;;5.03;;
9836;SDS011;4957;51.412;6.724;2023-04-03T02:32:24;7.87;;;5.40;;
9836;SDS011;4957;51.412;6.724;2023-04-03T02:34:49;6.60;;;4.87;;
9836;SDS011;4957;51.412;6.724;2023-04-03T02:37:15;14.93;;;4.60;;
9836;SDS011;4957;51.412;6.724;2023-04-03T02:39:41;9.23;;;4.40;;
9836;SDS011;4957;51.412;6.724;2023-04-03T02:42:07;8.40;;;4.93;;
9836;SDS011;4957;51.412;6.724;2023-04-03T02:44:32;6.90;;;4.90;;
9836;SDS011;4957;51.412;6.724;2023-04-03T02:46:58;10.83;;;4.47;;
9836;SDS011;4957;51.412;6.724;2023-04-03T02:49:24;10.20;;;4.20;;
9836;SDS011;4957;51.412;6.724;2023-04-03T02:51:50;7.53;;;4.23;;
9836;SDS011;4957;51.412;6.724;2023-04-03T02:54:16;9.20;;;3.87;;
9836;SDS011;4957;51.412;6.724;2023-04-03T02:56:42;12.70;;;4.53;;
9836;SDS011;4957;51.412;6.724;2023-04-03T02:59:07;8.07;;;4.00;;
9836;SDS011;4957;51.412;6.724;2023-04-03T03:01:33;5.63;;;4.30;;
9836;SDS011;4957;51.412;6.724;2023-04-03T03:04:00;6.10;;;4.40;;
9836;SDS011;4957;51.412;6.724;2023-04-03T03:06:26;14.43;;;4.23;;
9836;SDS011;4957;51.412;6.724;2023-04-03T03:08:52;5.87;;;3.80;;
9836;SDS011;4957;51.412;6.724;2023-04-03T03:11:18;6.13;;;3.67;;
9836;SDS011;4957;51.412;6.724;2023-04-03T03:13:44;7.10;;;3.80;;
9836;SDS011;4957;51.412;6.724;2023-04-03T03:16:10;5.13;;;3.60;;
9836;SDS011;4957;51.412;6.724;2023-04-03T03:18:36;9.03;;;4.00;;
9836;SDS011;4957;51.412;6.724;2023-04-03T03:21:02;7.63;;;3.83;;
9836;SDS011;4957;51.412;6.724;2023-04-03T03:23:29;8.50;;;3.93;;
9836;SDS011;4957;51.412;6.724;2023-04-03T03:26:07;11.20;;;3.90;;
9836;SDS011;4957;51.412;6.724;2023-04-03T03:28:35;6.10;;;2.80;;
9836;SDS011;4957;51.412;6.724;2023-04-03T03:31:02;5.90;;;3.27;;
9836;SDS011;4957;51.412;6.724;2023-04-03T03:33:28;5.80;;;3.30;;
9836;SDS011;4957;51.412;6.724;2023-04-03T03:35:54;6.87;;;3.10;;
9836;SDS011;4957;51.412;6.724;2023-04-03T03:38:21;6.67;;;3.20;;
9836;SDS011;4957;51.412;6.724;2023-04-03T03:40:47;8.57;;;3.67;;
9836;SDS011;4957;51.412;6.724;2023-04-03T03:43:15;5.73;;;3.30;;
9836;SDS011;4957;51.412;6.724;2023-04-03T03:45:41;9.70;;;3.00;;
9836;SDS011;4957;51.412;6.724;2023-04-03T03:48:07;5.53;;;3.63;;
9836;SDS011;4957;51.412;6.724;2023-04-03T03:50:32;8.80;;;3.00;;
9836;SDS011;4957;51.412;6.724;2023-04-03T03:52:58;6.67;;;3.10;;
9836;SDS011;4957;51.412;6.724;2023-04-03T03:55:24;4.67;;;2.83;;
9836;SDS011;4957;51.412;6.724;2023-04-03T03:57:50;7.00;;;2.90;;
9836;SDS011;4957;51.412;6.724;2023-04-03T04:00:16;6.57;;;2.80;;
9836;SDS011;4957;51.412;6.724;2023-04-03T04:02:42;6.53;;;2.60;;
9836;SDS011;4957;51.412;6.724;2023-04-03T04:05:08;6.33;;;2.93;;
9836;SDS011;4957;51.412;6.724;2023-04-03T04:07:34;8.53;;;3.07;;
9836;SDS011;4957;51.412;6.724;2023-04-03T04:10:00;4.50;;;3.10;;
9836;SDS011;4957;51.412;6.724;2023-04-03T04:12:26;6.07;;;3.03;;
9836;SDS011;4957;51.412;6.724;2023-04-03T04:14:51;5.37;;;3.03;;
9836;SDS011;4957;51.412;6.724;2023-04-03T04:17:17;6.50;;;2.70;;
9836;SDS011;4957;51.412;6.724;2023-04-03T04:19:43;4.20;;;2.23;;
9836;SDS011;4957;51.412;6.724;2023-04-03T04:22:08;7.97;;;2.47;;
9836;SDS011;4957;51.412;6.724;2023-04-03T04:24:34;4.03;;;2.83;;
9836;SDS011;4957;51.412;6.724;2023-04-03T04:27:00;4.20;;;2.33;;
9836;SDS011;4957;51.412;6.724;2023-04-03T04:29:26;4.07;;;2.83;;
9836;SDS011;4957;51.412;6.724;2023-04-03T04:31:51;7.93;;;3.17;;
9836;SDS011;4957;51.412;6.724;2023-04-03T04:34:17;4.83;;;2.73;;
9836;SDS011;4957;51.412;6.724;2023-04-03T04:36:43;8.57;;;2.67;;
9836;SDS011;4957;51.412;6.724;2023-04-03T04:39:08;7.37;;;2.43;;
9836;SDS011;4957;51.412;6.724;2023-04-03T04:41:34;5.40;;;2.57;;
9836;SDS011;4957;51.412;6.724;2023-04-03T04:44:00;7.60;;;2.70;;
9836;SDS011;4957;51.412;6.724;2023-04-03T04:46:26;7.37;;;2.87;;
9836;SDS011;4957;51.412;6.724;2023-04-03T04:48:52;4.90;;;2.70;;
9836;SDS011;4957;51.412;6.724;2023-04-03T04:51:18;4.90;;;2.37;;
9836;SDS011;4957;51.412;6.724;2023-04-03T04:53:44;7.17;;;3.00;;
9836;SDS011;4957;51.412;6.724;2023-04-03T04:56:10;3.07;;;2.30;;
9836;SDS011;4957;51.412;6.724;2023-04-03T04:58:36;7.23;;;2.67;;
9836;SDS011;4957;51.412;6.724;2023-04-03T05:01:03;7.40;;;2.93;;
9836;SDS011;4957;51.412;6.724;2023-04-03T05:03:32;8.70;;;2.40;;
9836;SDS011;4957;51.412;6.724;2023-04-03T05:05:58;6.30;;;2.83;;
9836;SDS011;4957;51.412;6.724;2023-04-03T05:08:24;5.50;;;2.67;;
9836;SDS011;4957;51.412;6.724;2023-04-03T05:10:50;5.50;;;2.23;;
9836;SDS011;4957;51.412;6.724;2023-04-03T05:13:16;4.00;;;2.60;;
9836;SDS011;4957;51.412;6.724;2023-04-03T05:15:42;6.93;;;2.23;;
9836;SDS011;4957;51.412;6.724;2023-04-03T05:18:08;5.33;;;2.40;;
9836;SDS011;4957;51.412;6.724;2023-04-03T05:20:34;6.00;;;2.47;;
9836;SDS011;4957;51.412;6.724;2023-04-03T05:23:00;7.57;;;2.50;;
9836;SDS011;4957;51.412;6.724;2023-04-03T05:25:26;4.67;;;2.50;;
9836;SDS011;4957;51.412;6.724;2023-04-03T05:27:52;6.10;;;2.77;;
9836;SDS011;4957;51.412;6.724;2023-04-03T05:30:18;6.80;;;2.13;;
9836;SDS011;4957;51.412;6.724;2023-04-03T05:32:44;3.60;;;2.57;;
9836;SDS011;4957;51.412;6.724;2023-04-03T05:35:10;6.80;;;2.60;;
9836;SDS011;4957;51.412;6.724;2023-04-03T05:37:36;8.93;;;2.67;;
9836;SDS011;4957;51.412;6.724;2023-04-03T05:40:02;5.70;;;2.37;;
9836;SDS011;4957;51.412;6.724;2023-04-03T05:42:29;4.73;;;2.53;;
9836;SDS011;4957;51.412;6.724;2023-04-03T05:44:55;4.73;;;2.57;;
9836;SDS011;4957;51.412;6.724;2023-04-03T05:47:20;5.23;;;2.60;;
9836;SDS011;4957;51.412;6.724;2023-04-03T05:49:46;6.80;;;2.53;;
9836;SDS011;4957;51.412;6.724;2023-04-03T05:52:35;6.63;;;2.23;;
9836;SDS011;4957;51.412;6.724;2023-04-03T05:55:00;7.17;;;2.13;;
9836;SDS011;4957;51.412;6.724;2023-04-03T05:57:26;5.27;;;2.57;;
9836;SDS011;4957;51.412;6.724;2023-04-03T05:59:51;5.07;;;2.80;;
9836;SDS011;4957;51.412;6.724;2023-04-03T06:02:18;5.23;;;2.30;;
9836;SDS011;4957;51.412;6.724;2023-04-03T06:04:46;9.00;;;2.57;;
9836;SDS011;4957;51.412;6.724;2023-04-03T06:07:16;9.80;;;2.40;;
9836;SDS011;4957;51.412;6.724;2023-04-03T06:09:46;9.03;;;2.37;;
9836;SDS011;4957;51.412;6.724;2023-04-03T06:12:12;5.23;;;2.73;;
9836;SDS011;4957;51.412;6.724;2023-04-03T06:14:38;8.77;;;2.50;;
9836;SDS011;4957;51.412;6.724;2023-04-03T06:17:04;3.27;;;2.20;;
9836;SDS011;4957;51.412;6.724;2023-04-03T06:19:31;4.20;;;2.57;;
9836;SDS011;4957;51.412;6.724;2023-04-03T06:21:56;6.00;;;3.17;;
9836;SDS011;4957;51.412;6.724;2023-04-03T06:24:22;6.10;;;2.73;;
9836;SDS011;4957;51.412;6.724;2023-04-03T06:26:49;6.97;;;2.80;;
9836;SDS011;4957;51.412;6.724;2023-04-03T06:29:16;4.97;;;2.30;;
9836;SDS011;4957;51.412;6.724;2023-04-03T06:31:42;3.93;;;2.20;;
9836;SDS011;4957;51.412;6.724;2023-04-03T06:34:09;5.73;;;2.20;;
9836;SDS011;4957;51.412;6.724;2023-04-03T06:36:36;3.97;;;2.20;;
9836;SDS011;4957;51.412;6.724;2023-04-03T06:39:01;6.30;;;3.20;;
9836;SDS011;4957;51.412;6.724;2023-04-03T06:41:28;3.53;;;2.00;;
9836;SDS011;4957;51.412;6.724;2023-04-03T06:43:54;5.03;;;2.20;;
9836;SDS011;4957;51.412;6.724;2023-04-03T06:46:21;6.43;;;2.13;;
9836;SDS011;4957;51.412;6.724;2023-04-03T06:48:48;8.07;;;2.40;;
9836;SDS011;4957;51.412;6.724;2023-04-03T06:53:46;13.13;;;2.30;;
9836;SDS011;4957;51.412;6.724;2023-04-03T06:56:13;5.30;;;2.30;;
9836;SDS011;4957;51.412;6.724;2023-04-03T06:58:40;7.63;;;2.13;;
9836;SDS011;4957;51.412;6.724;2023-04-03T07:01:07;4.50;;;2.03;;
9836;SDS011;4957;51.412;6.724;2023-04-03T07:03:34;4.70;;;1.80;;
9836;SDS011;4957;51.412;6.724;2023-04-03T07:06:01;7.00;;;2.40;;
9836;SDS011;4957;51.412;6.724;2023-04-03T07:08:27;6.37;;;2.60;;
9836;SDS011;4957;51.412;6.724;2023-04-03T07:10:53;6.30;;;2.10;;
9836;SDS011;4957;51.412;6.724;2023-04-03T07:13:19;5.20;;;2.23;;
9836;SDS011;4957;51.412;6.724;2023-04-03T07:15:45;3.70;;;2.00;;
9836;SDS011;4957;51.412;6.724;2023-04-03T07:18:11;6.77;;;2.10;;
9836;SDS011;4957;51.412;6.724;2023-04-03T07:20:36;3.53;;;1.63;;
9836;SDS011;4957;51.412;6.724;2023-04-03T07:23:03;3.37;;;1.80;;
9836;SDS011;4957;51.412;6.724;2023-04-03T07:25:29;3.60;;;1.90;;
9836;SDS011;4957;51.412;6.724;2023-04-03T07:27:56;8.43;;;2.10;;
9836;SDS011;4957;51.412;6.724;2023-04-03T07:30:22;6.40;;;2.20;;
9836;SDS011;4957;51.412;6.724;2023-04-03T07:32:48;5.07;;;1.97;;
9836;SDS011;4957;51.412;6.724;2023-04-03T07:35:14;5.30;;;1.80;;
9836;SDS011;4957;51.412;6.724;2023-04-03T07:37:41;5.53;;;1.80;;
9836;SDS011;4957;51.412;6.724;2023-04-03T07:40:07;5.93;;;1.97;;
9836;SDS011;4957;51.412;6.724;2023-04-03T07:42:33;4.63;;;1.90;;
9836;SDS011;4957;51.412;6.724;2023-04-03T07:45:00;3.30;;;1.60;;
9836;SDS011;4957;51.412;6.724;2023-04-03T07:47:26;4.40;;;1.83;;
9836;SDS011;4957;51.412;6.724;2023-04-03T07:49:52;7.93;;;1.90;;
9836;SDS011;4957;51.412;6.724;2023-04-03T07:52:18;7.20;;;1.80;;
9836;SDS011;4957;51.412;6.724;2023-04-03T07:54:44;3.93;;;1.63;;
9836;SDS011;4957;51.412;6.724;2023-04-03T07:57:09;6.17;;;2.10;;
9836;SDS011;4957;51.412;6.724;2023-04-03T07:59:35;6.53;;;1.73;;
9836;SDS011;4957;51.412;6.724;2023-04-03T08:02:01;5.37;;;2.17;;
9836;SDS011;4957;51.412;6.724;2023-04-03T08:04:29;4.67;;;2.10;;
9836;SDS011;4957;51.412;6.724;2023-04-03T08:06:55;5.87;;;1.67;;
9836;SDS011;4957;51.412;6.724;2023-04-03T08:09:21;3.27;;;1.60;;
9836;SDS011;4957;51.412;6.724;2023-04-03T08:11:47;5.43;;;1.70;;
9836;SDS011;4957;51.412;6.724;2023-04-03T08:14:12;3.50;;;1.60;;
9836;SDS011;4957;51.412;6.724;2023-04-03T08:16:42;1.90;;;1.40;;
9836;SDS011;4957;51.412;6.724;2023-04-03T08:19:08;2.77;;;1.70;;
9836;SDS011;4957;51.412;6.724;2023-04-03T08:21:35;7.13;;;1.83;;
9836;SDS011;4957;51.412;6.724;2023-04-03T08:24:01;7.63;;;1.80;;
9836;SDS011;4957;51.412;6.724;2023-04-03T08:26:29;4.10;;;1.73;;
9836;SDS011;4957;51.412;6.724;2023-04-03T08:28:54;5.27;;;1.90;;
9836;SDS011;4957;51.412;6.724;2023-04-03T08:31:20;3.53;;;1.53;;
9836;SDS011;4957;51.412;6.724;2023-04-03T08:33:46;5.30;;;1.70;;
9836;SDS011;4957;51.412;6.724;2023-04-03T08:36:20;2.83;;;1.50;;
9836;SDS011;4957;51.412;6.724;2023-04-03T08:38:51;6.10;;;1.93;;
9836;SDS011;4957;51.412;6.724;2023-04-03T08:49:25;3.23;;;1.47;;
9836;SDS011;4957;51.412;6.724;2023-04-03T08:51:57;3.00;;;1.40;;
9836;SDS011;4957;51.412;6.724;2023-04-03T08:54:29;1.67;;;1.20;;
9836;SDS011;4957;51.412;6.724;2023-04-03T08:56:59;2.47;;;1.33;;
9836;SDS011;4957;51.412;6.724;2023-04-03T08:59:28;3.43;;;1.40;;
9836;SDS011;4957;51.412;6.724;2023-04-03T09:01:57;2.80;;;1.30;;
9836;SDS011;4957;51.412;6.724;2023-04-03T09:04:27;4.13;;;1.50;;
9836;SDS011;4957;51.412;6.724;2023-04-03T09:06:58;5.67;;;1.53;;
9836;SDS011;4957;51.412;6.724;2023-04-03T09:09:41;6.77;;;1.63;;
9836;SDS011;4957;51.412;6.724;2023-04-03T09:12:19;1.73;;;1.20;;
9836;SDS011;4957;51.412;6.724;2023-04-03T09:15:14;2.23;;;1.40;;
9836;SDS011;4957;51.412;6.724;2023-04-03T09:20:43;2.43;;;1.30;;
9836;SDS011;4957;51.412;6.724;2023-04-03T09:23:33;1.33;;;0.80;;
9836;SDS011;4957;51.412;6.724;2023-04-03T09:26:11;2.87;;;1.03;;
9836;SDS011;4957;51.412;6.724;2023-04-03T09:28:44;1.70;;;1.30;;
9836;SDS011;4957;51.412;6.724;2023-04-03T09:31:36;1.77;;;1.27;;
9836;SDS011;4957;51.412;6.724;2023-04-03T09:34:24;2.47;;;1.10;;
9836;SDS011;4957;51.412;6.724;2023-04-03T09:36:53;2.70;;;1.13;;
9836;SDS011;4957;51.412;6.724;2023-04-03T09:39:25;3.30;;;1.37;;
9836;SDS011;4957;51.412;6.724;2023-04-03T09:42:00;4.83;;;1.40;;
9836;SDS011;4957;51.412;6.724;2023-04-03T09:44:31;1.40;;;0.83;;
9836;SDS011;4957;51.412;6.724;2023-04-03T09:46:58;1.73;;;1.10;;
9836;SDS011;4957;51.412;6.724;2023-04-03T09:49:25;4.30;;;1.20;;
9836;SDS011;4957;51.412;6.724;2023-04-03T09:51:51;2.60;;;0.90;;
9836;SDS011;4957;51.412;6.724;2023-04-03T09:57:07;1.30;;;0.70;;
9836;SDS011;4957;51.412;6.724;2023-04-03T09:59:47;3.03;;;1.07;;
9836;SDS011;4957;51.412;6.724;2023-04-03T10:02:43;4.37;;;1.10;;
9836;SDS011;4957;51.412;6.724;2023-04-03T10:05:54;1.97;;;0.93;;
9836;SDS011;4957;51.412;6.724;2023-04-03T10:11:06;1.27;;;0.93;;
9836;SDS011;4957;51.412;6.724;2023-04-03T10:13:36;3.20;;;0.97;;
9836;SDS011;4957;51.412;6.724;2023-04-03T10:16:16;3.60;;;1.00;;
9836;SDS011;4957;51.412;6.724;2023-04-03T10:18:46;2.57;;;0.77;;
9836;SDS011;4957;51.412;6.724;2023-04-03T10:21:37;2.50;;;1.10;;
9836;SDS011;4957;51.412;6.724;2023-04-03T10:24:21;2.43;;;0.80;;
9836;SDS011;4957;51.412;6.724;2023-04-03T10:27:16;2.60;;;1.70;;
9836;SDS011;4957;51.412;6.724;2023-04-03T10:32:44;1.47;;;0.90;;
9836;SDS011;4957;51.412;6.724;2023-04-03T10:38:13;2.07;;;1.10;;
9836;SDS011;4957;51.412;6.724;2023-04-03T10:44:14;1.40;;;0.70;;
9836;SDS011;4957;51.412;6.724;2023-04-03T10:47:01;0.80;;;0.80;;
9836;SDS011;4957;51.412;6.724;2023-04-03T10:49:40;2.63;;;1.13;;
9836;SDS011;4957;51.412;6.724;2023-04-03T10:54:58;1.93;;;0.97;;
9836;SDS011;4957;51.412;6.724;2023-04-03T10:57:34;1.73;;;0.97;;
9836;SDS011;4957;51.412;6.724;2023-04-03T11:00:04;2.87;;;0.97;;
9836;SDS011;4957;51.412;6.724;2023-04-03T11:02:51;3.83;;;1.20;;
9836;SDS011;4957;51.412;6.724;2023-04-03T11:10:55;2.90;;;1.30;;
9836;SDS011;4957;51.412;6.724;2023-04-03T11:13:46;3.77;;;1.47;;
9836;SDS011;4957;51.412;6.724;2023-04-03T11:16:24;6.03;;;1.50;;
9836;SDS011;4957;51.412;6.724;2023-04-03T11:19:10;4.07;;;1.40;;
9836;SDS011;4957;51.412;6.724;2023-04-03T11:21:48;2.00;;;1.20;;
9836;SDS011;4957;51.412;6.724;2023-04-03T11:24:22;2.83;;;1.13;;
9836;SDS011;4957;51.412;6.724;2023-04-03T11:26:51;2.33;;;1.30;;
9836;SDS011;4957;51.412;6.724;2023-04-03T11:29:24;2.50;;;1.37;;
9836;SDS011;4957;51.412;6.724;2023-04-03T11:34:46;1.90;;;1.20;;
9836;SDS011;4957;51.412;6.724;2023-04-03T11:42:52;3.07;;;1.30;;
9836;SDS011;4957;51.412;6.724;2023-04-03T11:45:25;2.80;;;1.27;;
9836;SDS011;4957;51.412;6.724;2023-04-03T12:05:50;2.50;;;1.10;;
9836;SDS011;4957;51.412;6.724;2023-04-03T12:08:27;2.97;;;1.37;;
9836;SDS011;4957;51.412;6.724;2023-04-03T12:16:22;1.37;;;1.13;;
9836;SDS011;4957;51.412;6.724;2023-04-03T12:24:02;2.23;;;1.10;;
9836;SDS011;4957;51.412;6.724;2023-04-03T12:29:20;3.77;;;1.30;;
9836;SDS011;4957;51.412;6.724;2023-04-03T12:34:25;1.10;;;1.00;;
9836;SDS011;4957;51.412;6.724;2023-04-03T12:40:08;1.97;;;1.33;;
9836;SDS011;4957;51.412;6.724;2023-04-03T12:48:14;2.57;;;1.10;;
9836;SDS011;4957;51.412;6.724;2023-04-03T12:50:43;2.20;;;0.83;;
9836;SDS011;4957;51.412;6.724;2023-04-03T12:53:24;3.97;;;1.10;;
9836;SDS011;4957;51.412;6.724;2023-04-03T12:56:44;3.57;;;1.20;;
9836;SDS011;4957;51.412;6.724;2023-04-03T12:58:45;2.07;;;1.07;;
9836;SDS011;4957;51.412;6.724;2023-04-03T13:01:16;2.93;;;1.00;;
9836;SDS011;4957;51.412;6.724;2023-04-03T13:03:47;2.20;;;1.37;;
9836;SDS011;4957;51.412;6.724;2023-04-03T13:06:19;3.10;;;1.10;;
9836;SDS011;4957;51.412;6.724;2023-04-03T13:08:53;6.80;;;1.37;;
9836;SDS011;4957;51.412;6.724;2023-04-03T13:11:22;1.87;;;1.10;;
9836;SDS011;4957;51.412;6.724;2023-04-03T13:14:32;3.23;;;1.20;;
9836;SDS011;4957;51.412;6.724;2023-04-03T13:16:40;2.90;;;1.67;;
9836;SDS011;4957;51.412;6.724;2023-04-03T13:19:06;2.63;;;1.20;;
9836;SDS011;4957;51.412;6.724;2023-04-03T13:21:42;2.93;;;1.13;;
9836;SDS011;4957;51.412;6.724;2023-04-03T13:24:09;1.23;;;1.00;;
9836;SDS011;4957;51.412;6.724;2023-04-03T13:26:35;4.20;;;0.80;;
9836;SDS011;4957;51.412;6.724;2023-04-03T13:29:04;2.87;;;1.30;;
9836;SDS011;4957;51.412;6.724;2023-04-03T13:31:32;4.63;;;1.20;;
9836;SDS011;4957;51.412;6.724;2023-04-03T13:36:43;2.00;;;1.10;;
9836;SDS011;4957;51.412;6.724;2023-04-03T13:41:46;2.50;;;1.30;;
9836;SDS011;4957;51.412;6.724;2023-04-03T13:44:35;2.47;;;1.10;;
9836;SDS011;4957;51.412;6.724;2023-04-03T13:49:37;1.20;;;0.93;;
9836;SDS011;4957;51.412;6.724;2023-04-03T13:52:27;2.23;;;1.20;;
9836;SDS011;4957;51.412;6.724;2023-04-03T13:55:26;3.57;;;1.10;;
9836;SDS011;4957;51.412;6.724;2023-04-03T14:03:03;2.10;;;1.10;;
9836;SDS011;4957;51.412;6.724;2023-04-03T14:05:39;2.50;;;0.90;;
9836;SDS011;4957;51.412;6.724;2023-04-03T14:08:05;2.90;;;1.37;;
9836;SDS011;4957;51.412;6.724;2023-04-03T14:10:32;2.30;;;1.20;;
9836;SDS011;4957;51.412;6.724;2023-04-03T14:12:58;2.77;;;1.40;;
9836;SDS011;4957;51.412;6.724;2023-04-03T14:15:24;3.30;;;1.17;;
9836;SDS011;4957;51.412;6.724;2023-04-03T14:17:53;2.67;;;1.00;;
9836;SDS011;4957;51.412;6.724;2023-04-03T14:20:21;3.57;;;1.70;;
9836;SDS011;4957;51.412;6.724;2023-04-03T14:22:49;5.33;;;1.70;;
9836;SDS011;4957;51.412;6.724;2023-04-03T14:25:16;1.53;;;1.17;;
9836;SDS011;4957;51.412;6.724;2023-04-03T14:27:44;1.67;;;1.10;;
9836;SDS011;4957;51.412;6.724;2023-04-03T14:30:14;1.67;;;0.90;;
9836;SDS011;4957;51.412;6.724;2023-04-03T14:32:40;2.50;;;1.37;;
9836;SDS011;4957;51.412;6.724;2023-04-03T14:35:06;2.13;;;1.07;;
9836;SDS011;4957;51.412;6.724;2023-04-03T14:37:32;1.60;;;0.93;;
9836;SDS011;4957;51.412;6.724;2023-04-03T14:39:59;3.30;;;0.93;;
9836;SDS011;4957;51.412;6.724;2023-04-03T14:42:27;0.80;;;0.80;;
9836;SDS011;4957;51.412;6.724;2023-04-03T14:44:56;3.83;;;1.27;;
9836;SDS011;4957;51.412;6.724;2023-04-03T14:47:23;2.17;;;1.03;;
9836;SDS011;4957;51.412;6.724;2023-04-03T14:49:52;1.80;;;1.00;;
9836;SDS011;4957;51.412;6.724;2023-04-03T14:52:20;2.90;;;1.10;;
9836;SDS011;4957;51.412;6.724;2023-04-03T14:54:48;1.87;;;0.93;;
9836;SDS011;4957;51.412;6.724;2023-04-03T14:57:15;2.43;;;1.03;;
9836;SDS011;4957;51.412;6.724;2023-04-03T14:59:42;8.43;;;1.23;;
9836;SDS011;4957;51.412;6.724;2023-04-03T15:04:53;3.40;;;1.07;;
9836;SDS011;4957;51.412;6.724;2023-04-03T15:07:19;2.83;;;1.47;;
9836;SDS011;4957;51.412;6.724;2023-04-03T15:09:45;1.43;;;0.83;;
9836;SDS011;4957;51.412;6.724;2023-04-03T15:12:11;2.30;;;1.13;;
9836;SDS011;4957;51.412;6.724;2023-04-03T15:14:37;2.83;;;1.40;;
9836;SDS011;4957;51.412;6.724;2023-04-03T15:17:04;3.73;;;1.30;;
9836;SDS011;4957;51.412;6.724;2023-04-03T15:19:36;4.37;;;0.97;;
9836;SDS011;4957;51.412;6.724;2023-04-03T15:22:02;2.50;;;1.20;;
9836;SDS011;4957;51.412;6.724;2023-04-03T15:24:28;4.23;;;1.17;;
9836;SDS011;4957;51.412;6.724;2023-04-03T15:27:03;3.00;;;1.00;;
9836;SDS011;4957;51.412;6.724;2023-04-03T15:29:38;3.40;;;0.90;;
9836;SDS011;4957;51.412;6.724;2023-04-03T15:32:06;3.70;;;1.17;;
9836;SDS011;4957;51.412;6.724;2023-04-03T15:34:33;2.93;;;0.83;;
9836;SDS011;4957;51.412;6.724;2023-04-03T15:37:00;4.20;;;1.53;;
9836;SDS011;4957;51.412;6.724;2023-04-03T15:39:26;2.77;;;1.27;;
9836;SDS011;4957;51.412;6.724;2023-04-03T15:41:52;2.00;;;1.00;;
9836;SDS011;4957;51.412;6.724;2023-04-03T15:44:19;1.60;;;1.10;;
9836;SDS011;4957;51.412;6.724;2023-04-03T15:46:45;4.93;;;1.30;;
9836;SDS011;4957;51.412;6.724;2023-04-03T15:49:13;1.60;;;1.17;;
9836;SDS011;4957;51.412;6.724;2023-04-03T15:51:39;3.00;;;1.30;;
9836;SDS011;4957;51.412;6.724;2023-04-03T15:54:05;2.80;;;1.10;;
9836;SDS011;4957;51.412;6.724;2023-04-03T15:56:31;3.13;;;1.20;;
9836;SDS011;4957;51.412;6.724;2023-04-03T15:58:57;2.90;;;1.23;;
9836;SDS011;4957;51.412;6.724;2023-04-03T16:01:22;2.43;;;1.20;;
9836;SDS011;4957;51.412;6.724;2023-04-03T16:03:48;2.17;;;1.30;;
9836;SDS011;4957;51.412;6.724;2023-04-03T16:06:15;3.33;;;1.10;;
9836;SDS011;4957;51.412;6.724;2023-04-03T16:08:43;2.93;;;1.20;;
9836;SDS011;4957;51.412;6.724;2023-04-03T16:11:10;2.43;;;1.30;;
9836;SDS011;4957;51.412;6.724;2023-04-03T16:13:35;2.40;;;1.13;;
9836;SDS011;4957;51.412;6.724;2023-04-03T16:16:01;3.23;;;1.10;;
9836;SDS011;4957;51.412;6.724;2023-04-03T16:18:28;2.93;;;1.10;;
9836;SDS011;4957;51.412;6.724;2023-04-03T16:20:54;1.20;;;1.10;;
9836;SDS011;4957;51.412;6.724;2023-04-03T16:23:20;2.37;;;1.30;;
9836;SDS011;4957;51.412;6.724;2023-04-03T16:25:46;2.73;;;1.20;;
9836;SDS011;4957;51.412;6.724;2023-04-03T16:28:13;2.40;;;1.20;;
9836;SDS011;4957;51.412;6.724;2023-04-03T16:30:42;1.87;;;1.20;;
9836;SDS011;4957;51.412;6.724;2023-04-03T16:33:09;4.60;;;1.23;;
9836;SDS011;4957;51.412;6.724;2023-04-03T16:35:35;2.37;;;1.40;;
9836;SDS011;4957;51.412;6.724;2023-04-03T16:38:01;4.70;;;1.50;;
9836;SDS011;4957;51.412;6.724;2023-04-03T16:40:27;2.30;;;1.40;;
9836;SDS011;4957;51.412;6.724;2023-04-03T16:42:52;3.83;;;1.23;;
9836;SDS011;4957;51.412;6.724;2023-04-03T16:45:18;4.63;;;1.43;;
9836;SDS011;4957;51.412;6.724;2023-04-03T16:47:43;2.87;;;1.27;;
9836;SDS011;4957;51.412;6.724;2023-04-03T16:50:10;2.73;;;1.57;;
9836;SDS011;4957;51.412;6.724;2023-04-03T16:52:36;3.10;;;1.30;;
9836;SDS011;4957;51.412;6.724;2023-04-03T16:55:01;2.70;;;1.47;;
9836;SDS011;4957;51.412;6.724;2023-04-03T16:57:27;1.77;;;1.07;;
9836;SDS011;4957;51.412;6.724;2023-04-03T16:59:53;6.03;;;1.30;;
9836;SDS011;4957;51.412;6.724;2023-04-03T17:02:20;3.57;;;1.83;;
9836;SDS011;4957;51.412;6.724;2023-04-03T17:04:46;3.60;;;1.30;;
9836;SDS011;4957;51.412;6.724;2023-04-03T17:07:12;3.30;;;1.87;;
9836;SDS011;4957;51.412;6.724;2023-04-03T17:09:38;3.77;;;1.47;;
9836;SDS011;4957;51.412;6.724;2023-04-03T17:12:03;2.63;;;1.23;;
9836;SDS011;4957;51.412;6.724;2023-04-03T17:14:29;4.50;;;1.50;;
9836;SDS011;4957;51.412;6.724;2023-04-03T17:16:55;2.23;;;1.20;;
9836;SDS011;4957;51.412;6.724;2023-04-03T17:19:21;2.47;;;1.10;;
9836;SDS011;4957;51.412;6.724;2023-04-03T17:21:48;1.23;;;1.13;;